Time;durP1;ratioP1;P1;durP2;ratioP2;P2;SDS_P1;SDS_P2;PMS_P1;PMS_P2;Temp;Humidity;BMP_temperature;BMP_pressure;BME280_temperature;BME280_humidity;BME280_pressure;Samples;Min_cycle;Max_cycle;Signal;HPM_P1;HPM_P2
2022/07/26 00:01:18;;;;;;;10.73;9.30;;;;;;;;;;4992207;28;20034;-57
2022/07/26 00:03:45;;;;;;;16.83;10.18;;;;;;;;;;4991716;28;20277;-59
2022/07/26 00:06:11;;;;;;;13.00;10.32;;;;;;;;;;4975981;28;20022;-59
2022/07/26 00:08:37;;;;;;;15.87;10.77;;;;;;;;;;4974340;28;20759;-58
2022/07/26 00:11:03;;;;;;;21.13;11.03;;;;;;;;;;4990125;28;20038;-59
2022/07/26 00:13:29;;;;;;;14.02;11.70;;;;;;;;;;4982223;28;20639;-59
2022/07/26 00:15:55;;;;;;;16.92;10.80;;;;;;;;;;4980103;28;20110;-58
2022/07/26 00:18:21;;;;;;;14.93;11.60;;;;;;;;;;4973106;28;20031;-57
2022/07/26 00:20:47;;;;;;;18.73;11.38;;;;;;;;;;4973480;28;20462;-58
2022/07/26 00:23:15;;;;;;;14.15;11.95;;;;;;;;;;4974210;28;20046;-58
2022/07/26 00:25:41;;;;;;;14.68;11.27;;;;;;;;;;4976960;28;20075;-59
2022/07/26 00:28:07;;;;;;;13.65;10.45;;;;;;;;;;4972649;28;20031;-58
2022/07/26 00:30:33;;;;;;;13.03;10.73;;;;;;;;;;4972950;28;20033;-58
2022/07/26 00:32:59;;;;;;;14.53;11.80;;;;;;;;;;4972824;28;20773;-60
2022/07/26 00:35:25;;;;;;;15.60;10.20;;;;;;;;;;4979843;28;20657;-58
2022/07/26 00:37:52;;;;;;;14.40;10.88;;;;;;;;;;4979797;28;20076;-59
2022/07/26 00:40:18;;;;;;;14.65;9.70;;;;;;;;;;4972943;28;20042;-59
2022/07/26 00:42:44;;;;;;;18.63;10.40;;;;;;;;;;4982121;28;20066;-59
2022/07/26 00:45:11;;;;;;;11.38;9.40;;;;;;;;;;4977580;28;20109;-56
2022/07/26 00:47:37;;;;;;;;;;;;;;;;;;4973223;28;20030;-59
2022/07/26 00:50:05;;;;;;;13.02;8.27;;;;;;;;;;4972434;28;19961;-57
2022/07/26 00:52:31;;;;;;;13.88;9.45;;;;;;;;;;4987803;28;20035;-59
2022/07/26 00:54:57;;;;;;;12.33;8.67;;;;;;;;;;4989367;28;20039;-59
2022/07/26 00:57:23;;;;;;;14.70;9.05;;;;;;;;;;4977207;28;20030;-59
2022/07/26 00:59:50;;;;;;;9.40;7.18;;;;;;;;;;4991577;28;20038;-59
2022/07/26 01:02:17;;;;;;;15.38;8.48;;;;;;;;;;4991668;28;20058;-59
2022/07/26 01:04:46;;;;;;;;;;;;;;;;;;4990389;28;20030;-55
2022/07/26 01:07:12;;;;;;;7.32;6.50;;;;;;;;;;4972683;28;19906;-58
2022/07/26 01:09:39;;;;;;;13.60;7.38;;;;;;;;;;4973518;28;20046;-58
2022/07/26 01:12:05;;;;;;;12.48;8.07;;;;;;;;;;4980345;28;20045;-59
2022/07/26 01:14:31;;;;;;;15.15;8.93;;;;;;;;;;4991683;28;20402;-56
2022/07/26 01:16:57;;;;;;;11.07;8.18;;;;;;;;;;4973600;28;20528;-58
2022/07/26 01:19:23;;;;;;;16.40;7.13;;;;;;;;;;4971136;28;20033;-59
2022/07/26 01:21:50;;;;;;;13.93;8.47;;;;;;;;;;4972021;28;20061;-57
2022/07/26 01:24:17;;;;;;;15.20;8.05;;;;;;;;;;4973471;28;20700;-58
2022/07/26 01:26:43;;;;;;;;;;;;;;;;;;4974189;28;20031;-59
2022/07/26 01:29:10;;;;;;;9.02;6.78;;;;;;;;;;4985209;28;19909;-58
2022/07/26 01:31:36;;;;;;;8.15;6.18;;;;;;;;;;4989937;28;20034;-59
2022/07/26 01:34:02;;;;;;;9.47;6.40;;;;;;;;;;4982725;28;20023;-59
2022/07/26 01:36:28;;;;;;;10.95;7.45;;;;;;;;;;4972338;28;20027;-59
2022/07/26 01:38:54;;;;;;;11.05;8.20;;;;;;;;;;4972123;28;20097;-59
2022/07/26 01:41:20;;;;;;;11.17;7.53;;;;;;;;;;4990180;28;20027;-59
2022/07/26 01:43:46;;;;;;;12.80;8.00;;;;;;;;;;4990707;28;20285;-58
2022/07/26 01:46:12;;;;;;;10.13;7.30;;;;;;;;;;4994814;28;20069;-59
2022/07/26 01:48:38;;;;;;;12.57;7.88;;;;;;;;;;4991697;28;20034;-57
2022/07/26 01:51:05;;;;;;;13.15;8.32;;;;;;;;;;4982132;28;20037;-57
2022/07/26 01:53:31;;;;;;;18.77;10.52;;;;;;;;;;4982381;28;20394;-59
2022/07/26 01:55:57;;;;;;;17.10;10.55;;;;;;;;;;4991808;28;20037;-58
2022/07/26 01:58:23;;;;;;;14.90;10.35;;;;;;;;;;4993282;28;20033;-59
2022/07/26 02:00:49;;;;;;;10.77;9.50;;;;;;;;;;4990679;28;20109;-58
2022/07/26 02:03:15;;;;;;;13.30;9.18;;;;;;;;;;4994374;28;20106;-59
2022/07/26 02:05:41;;;;;;;13.30;9.30;;;;;;;;;;4994581;28;20093;-58
2022/07/26 02:08:07;;;;;;;12.80;9.83;;;;;;;;;;4986161;28;20480;-59
2022/07/26 02:13:18;;;;;;;13.30;10.73;;;;;;;;;;4992025;28;20053;-59
2022/07/26 02:15:44;;;;;;;15.80;11.00;;;;;;;;;;4986675;28;20479;-58
2022/07/26 02:18:10;;;;;;;16.17;10.17;;;;;;;;;;4975093;28;20270;-57
2022/07/26 02:20:36;;;;;;;13.63;10.73;;;;;;;;;;4985615;28;20093;-58
2022/07/26 02:23:02;;;;;;;14.70;11.57;;;;;;;;;;4992478;28;20037;-58
2022/07/26 02:25:28;;;;;;;20.38;11.63;;;;;;;;;;4984466;28;20277;-60
2022/07/26 02:27:55;;;;;;;17.33;11.70;;;;;;;;;;4975922;28;20027;-57
2022/07/26 02:30:21;;;;;;;14.93;11.85;;;;;;;;;;4989821;28;20057;-57
2022/07/26 02:32:47;;;;;;;17.93;11.60;;;;;;;;;;4993106;28;20085;-58
2022/07/26 02:35:13;;;;;;;17.25;11.35;;;;;;;;;;4979011;28;20023;-56
2022/07/26 02:37:39;;;;;;;18.02;12.90;;;;;;;;;;4990297;28;20132;-58
2022/07/26 02:40:06;;;;;;;18.65;13.35;;;;;;;;;;4979880;28;20038;-58
2022/07/26 02:42:32;;;;;;;18.20;12.13;;;;;;;;;;4977298;28;20104;-58
2022/07/26 02:44:58;;;;;;;16.27;13.02;;;;;;;;;;4986422;28;20479;-58
2022/07/26 02:47:24;;;;;;;15.53;11.37;;;;;;;;;;4978479;28;20039;-59
2022/07/26 02:49:50;;;;;;;16.63;10.95;;;;;;;;;;4979446;28;20030;-59
2022/07/26 02:52:16;;;;;;;16.15;11.80;;;;;;;;;;4978122;28;20109;-58
2022/07/26 02:54:42;;;;;;;21.40;12.63;;;;;;;;;;4985322;28;20084;-58
2022/07/26 02:57:09;;;;;;;18.10;13.30;;;;;;;;;;4975152;28;20026;-59
2022/07/26 02:59:35;;;;;;;20.48;12.20;;;;;;;;;;4980866;28;20312;-58
2022/07/26 03:02:01;;;;;;;17.95;12.40;;;;;;;;;;4977283;28;20039;-58
2022/07/26 03:04:27;;;;;;;14.98;12.32;;;;;;;;;;4974720;28;20495;-58
2022/07/26 03:06:53;;;;;;;28.07;13.23;;;;;;;;;;4989982;28;20467;-58
2022/07/26 03:09:19;;;;;;;17.27;12.27;;;;;;;;;;4987477;28;20027;-56
2022/07/26 03:11:45;;;;;;;21.03;14.23;;;;;;;;;;4973955;28;20257;-56
2022/07/26 03:14:11;;;;;;;19.03;13.67;;;;;;;;;;4975689;28;20018;-56
2022/07/26 03:16:37;;;;;;;17.53;14.17;;;;;;;;;;4989359;28;20265;-56
2022/07/26 03:19:03;;;;;;;15.53;12.73;;;;;;;;;;4993224;28;20105;-57
2022/07/26 03:21:29;;;;;;;24.85;15.10;;;;;;;;;;4992893;28;20039;-57
2022/07/26 03:23:55;;;;;;;16.43;13.37;;;;;;;;;;4993256;28;20045;-57
2022/07/26 03:26:21;;;;;;;21.60;13.98;;;;;;;;;;4974809;28;20110;-56
2022/07/26 03:28:47;;;;;;;25.60;13.70;;;;;;;;;;4976739;28;20054;-57
2022/07/26 03:31:13;;;;;;;16.73;13.93;;;;;;;;;;4993213;28;20265;-55
2022/07/26 03:33:40;;;;;;;26.48;15.45;;;;;;;;;;4993369;28;20033;-58
2022/07/26 03:36:06;;;;;;;23.58;14.93;;;;;;;;;;4976235;28;20034;-57
2022/07/26 03:38:32;;;;;;;17.38;13.70;;;;;;;;;;4973443;28;20023;-55
2022/07/26 03:40:58;;;;;;;15.75;14.00;;;;;;;;;;4976019;28;20030;-57
2022/07/26 03:43:24;;;;;;;19.42;15.60;;;;;;;;;;4992959;28;20034;-56
2022/07/26 03:45:51;;;;;;;22.67;13.90;;;;;;;;;;4992709;28;20054;-57
2022/07/26 03:48:17;;;;;;;18.45;13.13;;;;;;;;;;4980228;28;20277;-57
2022/07/26 03:50:43;;;;;;;17.43;14.43;;;;;;;;;;4991261;28;20106;-58
2022/07/26 03:53:09;;;;;;;17.33;13.60;;;;;;;;;;4973287;28;20286;-55
2022/07/26 03:58:20;;;;;;;24.55;15.07;;;;;;;;;;4973597;28;20628;-58
2022/07/26 04:00:46;;;;;;;17.33;13.83;;;;;;;;;;4975134;28;20030;-58
2022/07/26 04:03:12;;;;;;;18.88;14.93;;;;;;;;;;4991396;28;20402;-56
2022/07/26 04:05:38;;;;;;;23.88;16.98;;;;;;;;;;4992451;28;20373;-56
2022/07/26 04:08:04;;;;;;;22.53;15.27;;;;;;;;;;4991361;28;20031;-57
2022/07/26 04:10:30;;;;;;;17.63;14.27;;;;;;;;;;4992358;28;20491;-56
2022/07/26 04:12:56;;;;;;;18.88;15.25;;;;;;;;;;4991349;28;20121;-57
2022/07/26 04:15:23;;;;;;;22.90;16.53;;;;;;;;;;4992798;28;20109;-56
2022/07/26 04:17:49;;;;;;;20.85;16.25;;;;;;;;;;4990507;28;20307;-56
2022/07/26 04:20:15;;;;;;;21.93;15.57;;;;;;;;;;4991600;28;20030;-56
2022/07/26 04:22:41;;;;;;;21.08;16.02;;;;;;;;;;4992327;28;20281;-56
2022/07/26 04:25:08;;;;;;;22.23;16.45;;;;;;;;;;4991147;28;20026;-56
2022/07/26 04:27:35;;;;;;;27.77;15.35;;;;;;;;;;4992400;28;20031;-58
2022/07/26 04:30:01;;;;;;;19.13;15.52;;;;;;;;;;4992130;28;20062;-58
2022/07/26 04:32:27;;;;;;;26.23;16.45;;;;;;;;;;4992379;28;20026;-56
2022/07/26 04:34:53;;;;;;;23.17;17.63;;;;;;;;;;4992322;28;20033;-56
2022/07/26 04:37:19;;;;;;;22.40;16.10;;;;;;;;;;4992355;28;20026;-58
2022/07/26 04:39:45;;;;;;;17.83;15.32;;;;;;;;;;4990987;28;20483;-58
2022/07/26 04:42:11;;;;;;;22.55;15.25;;;;;;;;;;4992258;28;20060;-57
2022/07/26 04:44:38;;;;;;;20.35;16.10;;;;;;;;;;4992201;28;20041;-57
2022/07/26 04:47:04;;;;;;;22.80;15.90;;;;;;;;;;4992260;28;20061;-58
2022/07/26 04:49:30;;;;;;;22.92;16.33;;;;;;;;;;4991974;28;20476;-57
2022/07/26 04:51:58;;;;;;;15.73;13.93;;;;;;;;;;4991946;28;20476;-57
2022/07/26 04:54:24;;;;;;;20.52;14.88;;;;;;;;;;4990953;28;20047;-57
2022/07/26 04:56:50;;;;;;;17.37;15.40;;;;;;;;;;4992169;28;20018;-58
2022/07/26 04:59:16;;;;;;;19.97;15.83;;;;;;;;;;4991997;28;20038;-55
2022/07/26 05:01:42;;;;;;;20.42;14.93;;;;;;;;;;4991993;28;20019;-55
2022/07/26 05:04:08;;;;;;;20.80;16.10;;;;;;;;;;4992071;28;20022;-57
2022/07/26 05:06:34;;;;;;;21.93;13.90;;;;;;;;;;4992171;28;20080;-56
2022/07/26 05:09:00;;;;;;;18.17;14.07;;;;;;;;;;4990833;28;20258;-56
2022/07/26 05:11:27;;;;;;;21.00;13.53;;;;;;;;;;4991907;28;20253;-58
2022/07/26 05:13:53;;;;;;;22.10;13.20;;;;;;;;;;4991839;28;20292;-57
2022/07/26 05:16:19;;;;;;;20.07;14.50;;;;;;;;;;4991993;28;20391;-57
2022/07/26 05:18:45;;;;;;;17.77;13.75;;;;;;;;;;4994909;28;20475;-56
2022/07/26 05:21:11;;;;;;;17.37;12.80;;;;;;;;;;5019743;22;20036;-59
2022/07/26 05:23:37;;;;;;;18.40;14.70;;;;;;;;;;5015088;28;20257;-57
2022/07/26 05:26:03;;;;;;;17.47;14.23;;;;;;;;;;5015109;28;20478;-58
2022/07/26 05:28:29;;;;;;;17.97;13.83;;;;;;;;;;5015015;28;20489;-57
2022/07/26 05:30:55;;;;;;;18.33;14.23;;;;;;;;;;5015498;28;20664;-56
2022/07/26 05:33:21;;;;;;;19.48;13.07;;;;;;;;;;4995383;28;20438;-58
2022/07/26 05:35:47;;;;;;;15.67;12.77;;;;;;;;;;4995485;28;20471;-56
2022/07/26 05:38:13;;;;;;;24.93;16.00;;;;;;;;;;5010592;28;20026;-58
2022/07/26 05:40:39;;;;;;;20.33;13.47;;;;;;;;;;4995300;28;20285;-58
2022/07/26 05:43:06;;;;;;;20.50;14.82;;;;;;;;;;4995189;28;20026;-56
2022/07/26 05:45:32;;;;;;;18.98;13.57;;;;;;;;;;4995310;28;20037;-55
2022/07/26 05:47:58;;;;;;;21.38;14.68;;;;;;;;;;5010203;28;20487;-57
2022/07/26 05:50:24;;;;;;;21.05;12.85;;;;;;;;;;5010004;28;20070;-57
2022/07/26 05:52:50;;;;;;;15.73;12.45;;;;;;;;;;4995011;28;20057;-56
2022/07/26 05:55:16;;;;;;;16.80;12.60;;;;;;;;;;4995073;28;20029;-56
2022/07/26 05:57:46;;;;;;;16.60;13.83;;;;;;;;;;4994949;28;20260;-59
2022/07/26 06:00:12;;;;;;;17.85;13.43;;;;;;;;;;4995236;28;20057;-57
2022/07/26 06:02:38;;;;;;;18.60;14.40;;;;;;;;;;4994852;28;20144;-56
2022/07/26 06:05:04;;;;;;;18.27;15.40;;;;;;;;;;4994914;28;20037;-58
2022/07/26 06:07:30;;;;;;;20.25;13.98;;;;;;;;;;4994878;28;20502;-55
2022/07/26 06:09:56;;;;;;;20.23;13.95;;;;;;;;;;4994585;28;20093;-58
2022/07/26 06:12:22;;;;;;;17.25;15.13;;;;;;;;;;5009554;28;20032;-59
2022/07/26 06:14:48;;;;;;;16.97;13.20;;;;;;;;;;4994651;28;20039;-57
2022/07/26 06:17:14;;;;;;;18.95;13.75;;;;;;;;;;4994658;28;20317;-57
2022/07/26 06:19:41;;;;;;;16.38;13.00;;;;;;;;;;4994500;28;20050;-56
2022/07/26 06:22:07;;;;;;;21.75;14.82;;;;;;;;;;4994388;28;20097;-57
2022/07/26 06:24:33;;;;;;;17.15;13.65;;;;;;;;;;4994457;28;20026;-56
2022/07/26 06:26:59;;;;;;;19.52;12.55;;;;;;;;;;4994493;28;20031;-57
2022/07/26 06:29:25;;;;;;;17.15;14.40;;;;;;;;;;4994243;28;20442;-57
2022/07/26 06:31:51;;;;;;;19.10;14.93;;;;;;;;;;4994439;28;20450;-57
2022/07/26 06:34:17;;;;;;;26.30;14.30;;;;;;;;;;4994588;28;20623;-59
2022/07/26 06:36:43;;;;;;;17.13;13.85;;;;;;;;;;4994384;28;20113;-59
2022/07/26 06:39:09;;;;;;;17.95;13.02;;;;;;;;;;4994187;28;20033;-59
2022/07/26 06:41:36;;;;;;;17.30;13.57;;;;;;;;;;4992881;28;20061;-57
2022/07/26 06:44:02;;;;;;;17.70;12.90;;;;;;;;;;4994180;28;20539;-57
2022/07/26 06:46:28;;;;;;;22.15;14.07;;;;;;;;;;4994157;28;20153;-57
2022/07/26 06:48:54;;;;;;;24.77;13.02;;;;;;;;;;4994107;28;20030;-57
2022/07/26 06:51:22;;;;;;;16.40;12.20;;;;;;;;;;4993904;28;20023;-56
2022/07/26 06:53:48;;;;;;;15.52;12.57;;;;;;;;;;4993907;28;20363;-59
2022/07/26 06:56:16;;;;;;;14.98;12.25;;;;;;;;;;4993906;28;20026;-56
2022/07/26 06:58:42;;;;;;;13.73;12.27;;;;;;;;;;4993748;28;20030;-57
2022/07/26 07:01:08;;;;;;;17.13;13.38;;;;;;;;;;4994153;28;20034;-55
2022/07/26 07:03:35;;;;;;;17.02;11.30;;;;;;;;;;4993947;28;20048;-55
2022/07/26 07:06:01;;;;;;;17.42;10.55;;;;;;;;;;5009021;28;20026;-57
2022/07/26 07:08:27;;;;;;;18.85;9.50;;;;;;;;;;4993785;28;20036;-57
2022/07/26 07:10:55;;;;;;;14.75;9.80;;;;;;;;;;4994060;28;20037;-56
2022/07/26 07:13:21;;;;;;;16.77;10.63;;;23.90;92.80;;;;;;4993517;28;20491;-55
2022/07/26 07:15:47;;;;;;;13.52;10.23;;;26.90;70.50;;;;;;4993683;28;20480;-56
2022/07/26 07:18:13;;;;;;;16.23;11.17;;;26.90;71.40;;;;;;4993758;28;20030;-56
2022/07/26 07:20:39;;;;;;;16.63;10.30;;;26.90;71.40;;;;;;4993319;28;20488;-57
2022/07/26 07:23:06;;;;;;;17.63;10.20;;;26.90;70.50;;;;;;4993247;28;20121;-56
2022/07/26 07:25:31;;;;;;;13.95;9.32;;;27.00;71.20;;;;;;4993351;28;20030;-54
2022/07/26 07:27:58;;;;;;;16.17;11.37;;;27.00;70.70;;;;;;4993389;28;20029;-53
2022/07/26 07:30:24;;;;;;;10.23;9.23;;;27.10;70.60;;;;;;4993430;28;20026;-56
2022/07/26 07:32:49;;;;;;;12.83;9.27;;;27.20;70.20;;;;;;4993349;28;20042;-54
2022/07/26 07:35:15;;;;;;;13.53;9.93;;;27.10;70.10;;;;;;4993271;28;20390;-54
2022/07/26 07:37:41;;;;;;;14.07;9.73;;;27.20;70.00;;;;;;4991948;28;20750;-55
2022/07/26 07:40:08;;;;;;;14.37;9.33;;;27.30;70.20;;;;;;4992413;28;20022;-55
2022/07/26 07:42:34;;;;;;;12.65;9.93;;;27.40;69.10;;;;;;4992926;28;20060;-53
2022/07/26 07:45:00;;;;;;;12.17;10.27;;;;;;;;;;4993116;28;20077;-54
2022/07/26 07:47:26;;;;;;;10.55;8.70;;;;;;;;;;4993079;28;20033;-54
2022/07/26 07:49:52;;;;;;;13.02;10.05;;;27.40;69.60;;;;;;4991489;28;20065;-55
2022/07/26 07:52:18;;;;;;;11.43;8.77;;;27.30;68.80;;;;;;4992664;28;20054;-57
2022/07/26 07:54:43;;;;;;;14.73;10.20;;;27.30;67.60;;;;;;4992926;28;20025;-56
2022/07/26 07:57:09;;;;;;;18.93;10.77;;;27.30;67.10;;;;;;4992819;28;20035;-56
2022/07/26 07:59:35;;;;;;;15.57;11.67;;;27.40;67.50;;;;;;4992733;28;20027;-56
2022/07/26 08:02:01;;;;;;;12.80;9.33;;;;;;;;;;4992842;28;20030;-55
2022/07/26 08:04:27;;;;;;;12.93;9.85;;;27.40;67.50;;;;;;4992723;28;20031;-56
2022/07/26 08:06:52;;;;;;;20.33;11.97;;;27.60;67.50;;;;;;4991390;28;20030;-56
2022/07/26 08:09:18;;;;;;;11.40;9.53;;;27.70;68.40;;;;;;4992449;28;20026;-57
2022/07/26 08:11:44;;;;;;;20.13;9.30;;;;;;;;;;4992604;28;20157;-57
2022/07/26 08:14:11;;;;;;;13.10;10.70;;;;;;;;;;4992524;28;20340;-57
2022/07/26 08:16:37;;;;;;;14.13;9.88;;;;;;;;;;4992635;28;20027;-56
2022/07/26 08:19:04;;;;;;;12.38;11.00;;;;;;;;;;4992357;28;20487;-57
2022/07/26 08:21:30;;;;;;;15.43;9.38;;;;;;;;;;4992234;28;20064;-56
2022/07/26 08:23:58;;;;;;;14.98;9.10;;;;;;;;;;4992438;28;20390;-53
2022/07/26 08:26:24;;;;;;;15.27;9.75;;;;;;;;;;4992405;28;20030;-55
2022/07/26 08:28:51;;;;;;;12.93;9.85;;;;;;;;;;4992351;28;20539;-56
2022/07/26 08:31:19;;;;;;;14.40;8.88;;;;;;;;;;4992497;28;20037;-57
2022/07/26 08:33:45;;;;;;;12.55;10.00;;;;;;;;;;4990968;28;20538;-56
2022/07/26 08:36:12;;;;;;;14.80;9.73;;;;;;;;;;5007423;28;20030;-57
2022/07/26 08:38:38;;;;;;;13.40;9.85;;;;;;;;;;4992200;28;20023;-59
2022/07/26 08:41:04;;;;;;;11.05;9.50;;;;;;;;;;4992166;28;20022;-57
2022/07/26 08:43:30;;;;;;;12.35;9.68;;;;;;;;;;4992298;28;20034;-56
2022/07/26 08:46:03;;;;;;;10.90;9.73;;;;;;;;;;4992410;28;20034;-57
2022/07/26 08:48:29;;;;;;;15.05;9.20;;;;;;;;;;4992068;28;20030;-56
2022/07/26 08:50:56;;;;;;;11.88;8.02;;;;;;;;;;4992184;28;20022;-56
2022/07/26 08:53:22;;;;;;;10.70;7.78;;;;;;;;;;4995288;28;20030;-57
2022/07/26 08:55:48;;;;;;;10.20;8.82;;;;;;;;;;4996195;28;20157;-55
2022/07/26 08:58:14;;;;;;;10.57;8.20;;;;;;;;;;4996161;28;20026;-56
2022/07/26 09:00:42;;;;;;;10.75;7.20;;;;;;;;;;4995931;28;20041;-56
2022/07/26 09:03:23;;;;;;;13.57;8.55;;;;;;;;;;4995941;28;20491;-56
2022/07/26 09:05:49;;;;;;;11.18;8.32;;;;;;;;;;4995932;28;20417;-57
2022/07/26 09:08:28;;;;;;;13.20;8.95;;;;;;;;;;4995855;28;20058;-55
2022/07/26 09:10:55;;;;;;;11.88;8.73;;;;;;;;;;4995910;28;20117;-56
2022/07/26 09:13:22;;;;;;;15.10;10.70;;;;;;;;;;4995798;28;20034;-57
2022/07/26 09:16:06;;;;;;;13.18;10.27;;;;;;;;;;5010852;28;20024;-57
2022/07/26 09:18:32;;;;;;;17.23;9.80;;;;;;;;;;4995591;28;20085;-56
2022/07/26 09:21:00;;;;;;;14.25;8.15;;;;;;;;;;4995597;28;20080;-56
2022/07/26 09:23:38;;;;;;;15.02;7.72;;;;;;;;;;4995814;28;20068;-57
2022/07/26 09:26:04;;;;;;;;;;;;;;;;;;4996046;28;20041;-57
2022/07/26 09:28:30;;;;;;;12.50;8.05;;;;;;;;;;4995448;28;19996;-57
2022/07/26 09:30:56;;;;;;;12.52;8.48;;;;;;;;;;4995420;28;20093;-57
2022/07/26 09:33:23;;;;;;;20.80;8.95;;;;;;;;;;4995437;28;20034;-57
2022/07/26 09:36:09;;;;;;;14.40;8.73;;;;;;;;;;4995485;28;20065;-56
2022/07/26 09:38:39;;;;;;;10.82;7.45;;;;;;;;;;4994941;28;20034;-57
2022/07/26 09:41:18;;;;;;;10.73;8.38;;;;;;;;;;4993928;28;20030;-55
2022/07/26 09:43:44;;;;;;;11.68;7.85;;;;;;;;;;4994047;28;20437;-57
2022/07/26 09:46:11;;;;;;;13.85;9.13;;;;;;;;;;4995297;28;20034;-57
2022/07/26 09:48:38;;;;;;;10.50;8.20;;;;;;;;;;4993824;28;20050;-57
2022/07/26 09:51:05;;;;;;;10.98;7.97;;;;;;;;;;4994989;28;20072;-56
2022/07/26 09:53:40;;;;;;;12.13;8.32;;;;;;;;;;4995474;28;20109;-57
2022/07/26 09:56:06;;;;;;;10.18;8.77;;;;;;;;;;4995337;28;20069;-57
2022/07/26 09:58:33;;;;;;;13.15;7.78;;;;;;;;;;4994926;28;20098;-57
2022/07/26 10:00:59;;;;;;;12.60;8.68;;;;;;;;;;4994925;28;20107;-56
2022/07/26 10:03:25;;;;;;;12.15;8.90;;;;;;;;;;4994515;28;20026;-56
2022/07/26 10:05:51;;;;;;;12.35;8.52;;;;;;;;;;4994860;28;20038;-56
2022/07/26 10:08:18;;;;;;;10.13;8.05;;;;;;;;;;4994691;28;20048;-56
2022/07/26 10:10:44;;;;;;;;;;;;;;;;;;4994421;28;20029;-57
2022/07/26 10:13:10;;;;;;;9.68;7.90;;;;;;;;;;4994009;28;19917;-57
2022/07/26 10:15:44;;;;;;;15.18;9.27;;;;;;;;;;4994357;28;20101;-57
2022/07/26 10:18:30;;;;;;;15.48;8.68;;;;;;;;;;4994365;28;20030;-57
2022/07/26 10:20:56;;;;;;;10.80;8.18;;;;;;;;;;4993606;28;20045;-57
2022/07/26 10:23:35;;;;;;;14.35;9.52;;;;;;;;;;4994530;28;20101;-57
2022/07/26 10:26:01;;;;;;;11.05;8.82;;;;;;;;;;4993906;28;20049;-56
2022/07/26 10:28:29;;;;;;;13.57;9.70;;;;;;;;;;5008359;28;20034;-57
2022/07/26 10:31:25;;;;;;;13.73;9.80;;;;;;;;;;4975151;28;20031;-57
2022/07/26 10:33:52;;;;;;;14.13;8.85;;;;;;;;;;4976498;28;20050;-57
2022/07/26 10:36:22;;;;;;;13.40;7.90;;;;;;;;;;4994181;28;20614;-57
2022/07/26 10:39:02;;;;;;;9.90;8.05;;;;;;;;;;4997337;28;20027;-57
2022/07/26 10:41:33;;;;;;;8.75;7.78;;;;;;;;;;4992990;28;20097;-57
2022/07/26 10:44:11;;;;;;;9.07;7.88;;;;;;;;;;4994644;28;20099;-57
2022/07/26 10:46:55;;;;;;;10.52;7.93;;;;;;;;;;4993814;28;20026;-57
2022/07/26 10:49:26;;;;;;;11.27;8.00;;;;;;;;;;4993966;28;20502;-57
2022/07/26 10:52:03;;;;;;;13.27;7.65;;;;;;;;;;4993584;28;20027;-57
2022/07/26 10:54:30;;;;;;;13.00;10.65;;;;;;;;;;5009119;28;20398;-57
2022/07/26 10:56:56;;;;;;;13.13;9.90;;;;;;;;;;4993847;28;20033;-57
2022/07/26 10:59:32;;;;;;;11.73;9.70;;;;;;;;;;4993509;28;20491;-57
2022/07/26 11:01:58;;;;;;;14.20;9.33;;;;;;;;;;4988515;28;20025;-56
2022/07/26 11:04:24;;;;;;;12.70;9.57;;;;;;;;;;4985983;28;20098;-57
2022/07/26 11:06:51;;;;;;;15.50;8.82;;;;;;;;;;4987982;28;20081;-57
2022/07/26 11:09:22;;;;;;;15.23;9.50;;;;;;;;;;4989455;28;20081;-57
2022/07/26 11:11:50;;;;;;;12.95;8.43;;;;;;;;;;4983411;28;20027;-57
2022/07/26 11:14:16;;;;;;;10.20;8.70;;;;;;;;;;4987127;28;20042;-57
2022/07/26 11:16:47;;;;;;;11.48;8.38;;;;;;;;;;4989012;28;20387;-57
2022/07/26 11:19:14;;;;;;;17.05;10.35;;;;;;;;;;4992331;28;20077;-55
2022/07/26 11:21:40;;;;;;;10.75;8.20;;;;;;;;;;4985849;28;20031;-54
2022/07/26 11:24:07;;;;;;;11.73;8.55;;;;;;;;;;4991326;28;20110;-54
2022/07/26 11:26:40;;;;;;;11.88;7.50;;;;;;;;;;4993157;28;20506;-57
2022/07/26 11:29:06;;;;;;;10.95;7.18;;;;;;;;;;4993262;28;20073;-57
2022/07/26 11:31:35;;;;;;;13.05;8.85;;;;;;;;;;4992816;28;20036;-56
2022/07/26 11:34:02;;;;;;;11.32;7.22;;;;;;;;;;4992913;28;20038;-57
2022/07/26 11:36:32;;;;;;;9.85;7.60;;;;;;;;;;5008067;28;20080;-56
2022/07/26 11:38:59;;;;;;;9.73;6.43;;;;;;;;;;4993064;28;20110;-57
2022/07/26 11:41:26;;;;;;;10.63;8.10;;;;;;;;;;4992866;28;20571;-57
2022/07/26 11:43:53;;;;;;;8.43;7.30;;;;;;;;;;4992813;28;20031;-56
2022/07/26 11:46:20;;;;;;;8.68;6.95;;;;;;;;;;4992762;28;20065;-56
2022/07/26 11:48:45;;;;;;;;;;;;;;;;;;4993017;28;20096;-56
2022/07/26 11:51:16;;;;;;;10.85;7.43;;;;;;;;;;4992556;28;20012;-57
2022/07/26 11:53:42;;;;;;;9.07;6.47;;;;;;;;;;5008009;28;20025;-55
2022/07/26 11:56:09;;;;;;;;;;;;;;;;;;4993033;28;20092;-56
2022/07/26 11:58:35;;;;;;;12.00;7.63;;;;;;;;;;4992287;28;20298;-56
2022/07/26 12:01:01;;;;;;;9.02;6.25;;;;;;;;;;4992373;28;20085;-55
2022/07/26 12:03:27;;;;;;;9.50;6.00;;;;;;;;;;4992571;28;20060;-55
2022/07/26 12:06:03;;;;;;;7.88;5.82;;;;;;;;;;4992443;28;20026;-56
2022/07/26 12:08:48;;;;;;;8.00;6.05;;;;;;;;;;4992554;28;20029;-55
2022/07/26 12:11:14;;;;;;;9.85;6.75;;;;;;;;;;4992203;28;20041;-56
2022/07/26 12:14:00;;;;;;;8.73;5.63;;;;;;;;;;4992619;28;20026;-56
2022/07/26 12:16:38;;;;;;;11.18;6.72;;;;;;;;;;4992485;28;20038;-56
2022/07/26 12:19:04;;;;;;;10.05;6.35;;;;;;;;;;4992266;28;20054;-57
2022/07/26 12:21:42;;;;;;;8.75;6.20;;;;;;;;;;4992394;28;20372;-56
2022/07/26 12:24:08;;;;;;;7.53;4.45;;;;;;;;;;4992449;28;20031;-56
2022/07/26 12:26:35;;;;;;;7.13;5.50;;;;;;;;;;4991433;28;20080;-56
2022/07/26 12:31:46;;;;;;;8.88;4.20;;;;;;;;;;4992227;28;20287;-53
2022/07/26 12:34:12;;;;;;;6.82;4.50;;;;;;;;;;4991918;28;20030;-55
2022/07/26 12:36:38;;;;;;;7.15;4.57;;;;;;;;;;5007174;28;20030;-56
2022/07/26 12:39:04;;;;;;;7.20;5.07;;;;;;;;;;4992158;28;20034;-55
2022/07/26 12:41:30;;;;;;;;;;;;;;;;;;5007457;28;20030;-56
2022/07/26 12:43:58;;;;;;;9.30;4.78;;;;;;;;;;4992284;28;20363;-57
2022/07/26 12:46:24;;;;;;;8.77;4.78;;;;;;;;;;4992064;28;20487;-55
2022/07/26 12:48:50;;;;;;;5.43;4.25;;;;;;;;;;4991396;28;20375;-56
2022/07/26 12:51:16;;;;;;;8.75;5.70;;;;;;;;;;4992290;28;20113;-57
2022/07/26 12:53:42;;;;;;;6.90;4.90;;;;;;;;;;4992178;28;20031;-56
2022/07/26 12:56:08;;;;;;;8.82;4.93;;;;;;;;;;4991707;28;20022;-56
2022/07/26 12:58:34;;;;;;;5.55;4.30;;;;;;;;;;5006088;28;20030;-53
2022/07/26 13:01:01;;;;;;;8.02;4.55;;;;;;;;;;4990371;28;20522;-54
2022/07/26 13:03:27;;;;;;;8.80;4.10;;;;;;;;;;4990678;28;20038;-56
2022/07/26 13:05:53;;;;;;;;;;;;;;;;;;4992116;28;20058;-57
2022/07/26 13:08:19;;;;;;;7.35;4.25;;;;;;;;;;4991666;28;19960;-54
2022/07/26 13:10:45;;;;;;;9.00;4.65;;;;;;;;;;4991265;28;20037;-54
2022/07/26 13:13:11;;;;;;;6.20;4.78;;;;;;;;;;4991897;28;20527;-56
2022/07/26 13:15:37;;;;;;;7.63;5.15;;;;;;;;;;4991792;28;20026;-57
2022/07/26 13:18:04;;;;;;;5.60;4.00;;;;;;;;;;4991314;28;20034;-56
2022/07/26 13:20:31;;;;;;;12.23;5.20;;;;;;;;;;4990789;28;20512;-52
2022/07/26 13:22:57;;;;;;;9.68;4.72;;;;;;;;;;4991212;28;20034;-57
2022/07/26 13:25:24;;;;;;;5.28;4.25;;;;;;;;;;4991752;28;20372;-56
2022/07/26 13:27:52;;;;;;;6.95;4.30;;;;;;;;;;4991917;28;20069;-54
2022/07/26 13:30:18;;;;;;;7.57;4.45;;;;;;;;;;4991615;28;20403;-55
2022/07/26 13:32:44;;;;;;;5.63;3.80;;;;;;;;;;4991357;28;20022;-55
2022/07/26 13:35:10;;;;;;;;;;;;;;;;;;4992114;28;20490;-57
2022/07/26 13:37:37;;;;;;;8.40;4.60;;;;;;;;;;4991495;28;19910;-57
2022/07/26 13:40:03;;;;;;;5.88;3.78;;;;;;;;;;4994965;28;20458;-57
2022/07/26 13:42:29;;;;;;;6.20;3.92;;;;;;;;;;4995234;28;20032;-57
2022/07/26 13:44:55;;;;;;;5.72;3.97;;;;;;;;;;4995221;28;20050;-55
2022/07/26 13:47:21;;;;;;;7.47;4.15;;;;;;;;;;4995019;28;20042;-57
2022/07/26 13:49:47;;;;;;;7.30;3.45;;;;;;;;;;4995013;28;20063;-56
2022/07/26 13:52:13;;;;;;;7.85;3.90;;;;;;;;;;4994749;28;20104;-57
2022/07/26 13:54:39;;;;;;;5.32;3.42;;;;;;;;;;4994861;28;20041;-55
2022/07/26 13:57:06;;;;;;;4.80;3.53;;;;;;;;;;4994948;28;20287;-57
2022/07/26 13:59:32;;;;;;;3.65;3.33;;;;;;;;;;4994820;28;20019;-57
2022/07/26 14:01:58;;;;;;;9.73;3.72;;;;;;;;;;4994495;28;20033;-56
2022/07/26 14:04:25;;;;;;;7.97;4.57;;;;;;;;;;4990394;28;20032;-59
2022/07/26 14:06:51;;;;;;;3.90;3.33;;;;;;;;;;4997293;28;20035;-60
2022/07/26 14:09:18;;;;;;;4.53;3.42;;;;;;;;;;4990475;28;20026;-60
2022/07/26 14:11:44;;;;;;;9.25;4.68;;;;;;;;;;4994530;28;20400;-60
2022/07/26 14:14:10;;;;;;;10.45;3.72;;;;;;;;;;4992374;28;20038;-60
2022/07/26 14:16:37;;;;;;;5.95;3.45;;;;;;;;;;4990329;28;20034;-60
2022/07/26 14:19:05;;;;;;;9.93;3.70;;;;;;;;;;4985807;28;20023;-60
2022/07/26 14:21:32;;;;;;;3.40;3.10;;;;;;;;;;4975228;28;20528;-59
2022/07/26 14:23:59;;;;;;;5.22;3.65;;;;;;;;;;4994574;28;20080;-60
2022/07/26 14:26:25;;;;;;;6.10;3.67;;;;;;;;;;4993829;28;20443;-60
2022/07/26 14:28:51;;;;;;;4.35;3.47;;;;;;;;;;4993850;28;20041;-60